sensor_id;sensor_type;location;lat;lon;timestamp;temperature;humidity
56172;DHT22;42052;41.634;-0.946;2023-03-17T00:02:43;22.60;41.10
56172;DHT22;42052;41.634;-0.946;2023-03-17T00:05:33;22.60;41.30
56172;DHT22;42052;41.634;-0.946;2023-03-17T00:08:28;22.60;41.10
56172;DHT22;42052;41.634;-0.946;2023-03-17T00:11:16;22.50;41.10
56172;DHT22;42052;41.634;-0.946;2023-03-17T00:14:02;22.50;41.20
56172;DHT22;42052;41.634;-0.946;2023-03-17T00:16:50;22.50;41.10
56172;DHT22;42052;41.634;-0.946;2023-03-17T00:19:37;22.50;41.30
56172;DHT22;42052;41.634;-0.946;2023-03-17T00:22:23;22.50;41.20
56172;DHT22;42052;41.634;-0.946;2023-03-17T00:25:23;22.50;41.20
56172;DHT22;42052;41.634;-0.946;2023-03-17T00:28:18;22.50;41.20
56172;DHT22;42052;41.634;-0.946;2023-03-17T00:31:15;22.50;42.10
56172;DHT22;42052;41.634;-0.946;2023-03-17T00:34:02;22.50;42.00
56172;DHT22;42052;41.634;-0.946;2023-03-17T00:36:49;22.50;41.30
56172;DHT22;42052;41.634;-0.946;2023-03-17T00:39:36;22.50;41.40
56172;DHT22;42052;41.634;-0.946;2023-03-17T00:42:22;22.50;41.40
56172;DHT22;42052;41.634;-0.946;2023-03-17T00:45:09;22.50;41.40
56172;DHT22;42052;41.634;-0.946;2023-03-17T00:47:55;22.50;41.40
56172;DHT22;42052;41.634;-0.946;2023-03-17T00:50:42;22.50;41.50
56172;DHT22;42052;41.634;-0.946;2023-03-17T00:53:28;22.50;41.50
56172;DHT22;42052;41.634;-0.946;2023-03-17T00:56:17;22.50;41.40
56172;DHT22;42052;41.634;-0.946;2023-03-17T01:02:01;22.50;41.50
56172;DHT22;42052;41.634;-0.946;2023-03-17T01:04:47;22.50;41.60
56172;DHT22;42052;41.634;-0.946;2023-03-17T01:07:33;22.50;41.50
56172;DHT22;42052;41.634;-0.946;2023-03-17T01:10:25;22.50;41.50
56172;DHT22;42052;41.634;-0.946;2023-03-17T01:13:12;22.50;41.50
56172;DHT22;42052;41.634;-0.946;2023-03-17T01:15:59;22.50;41.50
56172;DHT22;42052;41.634;-0.946;2023-03-17T01:18:45;22.50;41.70
56172;DHT22;42052;41.634;-0.946;2023-03-17T01:21:32;22.40;41.70
56172;DHT22;42052;41.634;-0.946;2023-03-17T01:24:18;22.50;41.60
56172;DHT22;42052;41.634;-0.946;2023-03-17T01:27:05;22.50;41.60
56172;DHT22;42052;41.634;-0.946;2023-03-17T01:29:52;22.50;41.70
56172;DHT22;42052;41.634;-0.946;2023-03-17T01:32:39;22.40;41.70
56172;DHT22;42052;41.634;-0.946;2023-03-17T01:35:27;22.50;41.80
56172;DHT22;42052;41.634;-0.946;2023-03-17T01:38:14;22.40;41.70
56172;DHT22;42052;41.634;-0.946;2023-03-17T01:41:00;22.50;41.80
56172;DHT22;42052;41.634;-0.946;2023-03-17T01:43:46;22.40;41.70
56172;DHT22;42052;41.634;-0.946;2023-03-17T01:46:33;22.40;41.70
56172;DHT22;42052;41.634;-0.946;2023-03-17T01:52:15;22.40;41.80
56172;DHT22;42052;41.634;-0.946;2023-03-17T01:55:03;22.40;41.80
56172;DHT22;42052;41.634;-0.946;2023-03-17T01:57:52;22.40;41.90
56172;DHT22;42052;41.634;-0.946;2023-03-17T02:00:39;22.40;41.90
56172;DHT22;42052;41.634;-0.946;2023-03-17T02:03:25;22.40;41.80
56172;DHT22;42052;41.634;-0.946;2023-03-17T02:06:12;22.40;41.80
56172;DHT22;42052;41.634;-0.946;2023-03-17T02:08:59;22.40;41.70
56172;DHT22;42052;41.634;-0.946;2023-03-17T02:11:47;22.40;41.70
56172;DHT22;42052;41.634;-0.946;2023-03-17T02:14:33;22.40;41.70
56172;DHT22;42052;41.634;-0.946;2023-03-17T02:17:23;22.40;41.70
56172;DHT22;42052;41.634;-0.946;2023-03-17T02:23:04;22.40;41.70
56172;DHT22;42052;41.634;-0.946;2023-03-17T02:25:52;22.40;41.80
56172;DHT22;42052;41.634;-0.946;2023-03-17T02:28:38;22.40;42.60
56172;DHT22;42052;41.634;-0.946;2023-03-17T02:31:26;22.40;41.90
56172;DHT22;42052;41.634;-0.946;2023-03-17T02:34:12;22.40;41.90
56172;DHT22;42052;41.634;-0.946;2023-03-17T02:36:58;22.40;41.90
56172;DHT22;42052;41.634;-0.946;2023-03-17T02:39:45;22.40;42.10
56172;DHT22;42052;41.634;-0.946;2023-03-17T02:42:32;22.40;41.80
56172;DHT22;42052;41.634;-0.946;2023-03-17T02:45:19;22.40;41.90
56172;DHT22;42052;41.634;-0.946;2023-03-17T02:48:05;22.40;41.90
56172;DHT22;42052;41.634;-0.946;2023-03-17T02:50:52;22.30;41.80
56172;DHT22;42052;41.634;-0.946;2023-03-17T02:53:38;22.40;41.80
56172;DHT22;42052;41.634;-0.946;2023-03-17T02:56:24;22.30;41.80
56172;DHT22;42052;41.634;-0.946;2023-03-17T02:59:10;22.30;41.70
56172;DHT22;42052;41.634;-0.946;2023-03-17T03:01:56;22.30;41.80
56172;DHT22;42052;41.634;-0.946;2023-03-17T03:04:43;22.30;41.80
56172;DHT22;42052;41.634;-0.946;2023-03-17T03:07:29;22.30;41.90
56172;DHT22;42052;41.634;-0.946;2023-03-17T03:10:15;22.30;41.90
56172;DHT22;42052;41.634;-0.946;2023-03-17T03:13:03;22.30;41.70
56172;DHT22;42052;41.634;-0.946;2023-03-17T03:15:50;22.30;41.80
56172;DHT22;42052;41.634;-0.946;2023-03-17T03:18:36;22.30;42.60
56172;DHT22;42052;41.634;-0.946;2023-03-17T03:21:23;22.30;41.80
56172;DHT22;42052;41.634;-0.946;2023-03-17T03:24:09;22.30;41.90
56172;DHT22;42052;41.634;-0.946;2023-03-17T03:26:56;22.30;41.90
56172;DHT22;42052;41.634;-0.946;2023-03-17T03:29:42;22.30;41.80
56172;DHT22;42052;41.634;-0.946;2023-03-17T03:32:29;22.30;41.90
56172;DHT22;42052;41.634;-0.946;2023-03-17T03:35:15;22.40;41.90
56172;DHT22;42052;41.634;-0.946;2023-03-17T03:38:01;22.30;41.90
56172;DHT22;42052;41.634;-0.946;2023-03-17T03:40:48;22.30;41.90
56172;DHT22;42052;41.634;-0.946;2023-03-17T03:43:34;22.30;41.70
56172;DHT22;42052;41.634;-0.946;2023-03-17T03:46:21;22.40;41.90
56172;DHT22;42052;41.634;-0.946;2023-03-17T03:49:07;22.30;41.80
56172;DHT22;42052;41.634;-0.946;2023-03-17T03:51:53;22.30;41.90
56172;DHT22;42052;41.634;-0.946;2023-03-17T03:54:39;22.30;41.70
56172;DHT22;42052;41.634;-0.946;2023-03-17T03:57:25;22.30;41.90
56172;DHT22;42052;41.634;-0.946;2023-03-17T04:00:12;22.30;41.90
56172;DHT22;42052;41.634;-0.946;2023-03-17T04:03:01;22.30;42.00
56172;DHT22;42052;41.634;-0.946;2023-03-17T04:05:47;22.30;42.00
56172;DHT22;42052;41.634;-0.946;2023-03-17T04:08:33;22.30;42.00
56172;DHT22;42052;41.634;-0.946;2023-03-17T04:11:19;22.30;42.00
56172;DHT22;42052;41.634;-0.946;2023-03-17T04:14:06;22.30;42.00
56172;DHT22;42052;41.634;-0.946;2023-03-17T04:16:53;22.30;42.00
56172;DHT22;42052;41.634;-0.946;2023-03-17T04:19:40;22.20;42.00
56172;DHT22;42052;41.634;-0.946;2023-03-17T04:22:26;22.20;42.00
56172;DHT22;42052;41.634;-0.946;2023-03-17T04:25:13;22.20;42.00
56172;DHT22;42052;41.634;-0.946;2023-03-17T04:28:00;22.20;42.00
56172;DHT22;42052;41.634;-0.946;2023-03-17T04:30:47;22.20;41.90
56172;DHT22;42052;41.634;-0.946;2023-03-17T04:33:33;22.20;42.00
56172;DHT22;42052;41.634;-0.946;2023-03-17T04:36:21;22.20;41.90
56172;DHT22;42052;41.634;-0.946;2023-03-17T04:39:08;22.20;41.90
56172;DHT22;42052;41.634;-0.946;2023-03-17T04:41:54;22.20;42.00
56172;DHT22;42052;41.634;-0.946;2023-03-17T04:44:40;22.20;41.90
56172;DHT22;42052;41.634;-0.946;2023-03-17T04:47:27;22.20;41.80
56172;DHT22;42052;41.634;-0.946;2023-03-17T04:50:14;22.20;41.90
56172;DHT22;42052;41.634;-0.946;2023-03-17T04:53:00;22.20;42.00
56172;DHT22;42052;41.634;-0.946;2023-03-17T04:55:46;22.20;42.00
56172;DHT22;42052;41.634;-0.946;2023-03-17T04:58:33;22.20;42.00
56172;DHT22;42052;41.634;-0.946;2023-03-17T05:01:20;22.20;42.00
56172;DHT22;42052;41.634;-0.946;2023-03-17T05:04:06;22.20;42.20
56172;DHT22;42052;41.634;-0.946;2023-03-17T05:06:53;22.20;42.20
56172;DHT22;42052;41.634;-0.946;2023-03-17T05:09:39;22.20;42.40
56172;DHT22;42052;41.634;-0.946;2023-03-17T05:12:25;22.20;42.30
56172;DHT22;42052;41.634;-0.946;2023-03-17T05:15:12;22.20;42.30
56172;DHT22;42052;41.634;-0.946;2023-03-17T05:17:58;22.20;42.30
56172;DHT22;42052;41.634;-0.946;2023-03-17T05:20:44;22.10;42.20
56172;DHT22;42052;41.634;-0.946;2023-03-17T05:23:30;22.20;42.30
56172;DHT22;42052;41.634;-0.946;2023-03-17T05:26:16;22.20;42.40
56172;DHT22;42052;41.634;-0.946;2023-03-17T05:29:04;22.20;42.40
56172;DHT22;42052;41.634;-0.946;2023-03-17T05:31:50;22.20;42.50
56172;DHT22;42052;41.634;-0.946;2023-03-17T05:34:36;22.20;42.40
56172;DHT22;42052;41.634;-0.946;2023-03-17T05:37:23;22.20;42.50
56172;DHT22;42052;41.634;-0.946;2023-03-17T05:40:11;22.20;42.50
56172;DHT22;42052;41.634;-0.946;2023-03-17T05:42:58;22.20;42.50
56172;DHT22;42052;41.634;-0.946;2023-03-17T05:45:44;22.20;42.50
56172;DHT22;42052;41.634;-0.946;2023-03-17T05:48:32;22.20;42.40
56172;DHT22;42052;41.634;-0.946;2023-03-17T05:51:19;22.20;42.60
56172;DHT22;42052;41.634;-0.946;2023-03-17T05:54:06;22.20;42.60
56172;DHT22;42052;41.634;-0.946;2023-03-17T05:56:53;22.20;42.50
56172;DHT22;42052;41.634;-0.946;2023-03-17T05:59:39;22.10;42.50
56172;DHT22;42052;41.634;-0.946;2023-03-17T06:02:26;22.10;42.60
56172;DHT22;42052;41.634;-0.946;2023-03-17T06:05:12;22.10;43.10
56172;DHT22;42052;41.634;-0.946;2023-03-17T06:07:58;22.10;42.50
56172;DHT22;42052;41.634;-0.946;2023-03-17T06:10:45;22.10;42.90
56172;DHT22;42052;41.634;-0.946;2023-03-17T06:13:32;22.20;43.20
56172;DHT22;42052;41.634;-0.946;2023-03-17T06:16:18;22.20;42.70
56172;DHT22;42052;41.634;-0.946;2023-03-17T06:19:05;22.20;42.90
56172;DHT22;42052;41.634;-0.946;2023-03-17T06:21:51;22.20;42.90
56172;DHT22;42052;41.634;-0.946;2023-03-17T06:24:37;22.10;42.90
56172;DHT22;42052;41.634;-0.946;2023-03-17T06:27:24;22.10;43.60
56172;DHT22;42052;41.634;-0.946;2023-03-17T06:30:10;22.10;42.90
56172;DHT22;42052;41.634;-0.946;2023-03-17T06:32:57;22.20;42.90
56172;DHT22;42052;41.634;-0.946;2023-03-17T06:35:43;22.10;42.70
56172;DHT22;42052;41.634;-0.946;2023-03-17T06:38:29;22.20;42.70
56172;DHT22;42052;41.634;-0.946;2023-03-17T06:41:16;22.10;42.80
56172;DHT22;42052;41.634;-0.946;2023-03-17T06:44:02;22.10;42.80
56172;DHT22;42052;41.634;-0.946;2023-03-17T06:46:50;22.10;43.30
56172;DHT22;42052;41.634;-0.946;2023-03-17T06:49:37;22.10;43.10
56172;DHT22;42052;41.634;-0.946;2023-03-17T06:52:23;22.10;42.90
56172;DHT22;42052;41.634;-0.946;2023-03-17T06:55:09;22.10;43.00
56172;DHT22;42052;41.634;-0.946;2023-03-17T06:57:56;22.10;43.20
56172;DHT22;42052;41.634;-0.946;2023-03-17T07:00:43;22.10;43.00
56172;DHT22;42052;41.634;-0.946;2023-03-17T07:03:34;22.10;42.90
56172;DHT22;42052;41.634;-0.946;2023-03-17T07:06:20;22.10;42.90
56172;DHT22;42052;41.634;-0.946;2023-03-17T07:09:08;22.10;43.00
56172;DHT22;42052;41.634;-0.946;2023-03-17T07:11:54;22.10;43.00
56172;DHT22;42052;41.634;-0.946;2023-03-17T07:14:41;22.10;42.90
56172;DHT22;42052;41.634;-0.946;2023-03-17T07:17:28;22.10;42.90
56172;DHT22;42052;41.634;-0.946;2023-03-17T07:20:15;22.10;42.90
56172;DHT22;42052;41.634;-0.946;2023-03-17T07:23:01;22.10;42.80
56172;DHT22;42052;41.634;-0.946;2023-03-17T07:25:48;22.10;43.00
56172;DHT22;42052;41.634;-0.946;2023-03-17T07:28:34;22.10;42.90
56172;DHT22;42052;41.634;-0.946;2023-03-17T07:31:21;22.10;42.80
56172;DHT22;42052;41.634;-0.946;2023-03-17T07:34:08;22.10;42.90
56172;DHT22;42052;41.634;-0.946;2023-03-17T07:36:55;22.10;42.90
56172;DHT22;42052;41.634;-0.946;2023-03-17T07:39:41;22.10;42.70
56172;DHT22;42052;41.634;-0.946;2023-03-17T07:42:27;22.10;42.70
56172;DHT22;42052;41.634;-0.946;2023-03-17T07:45:13;22.10;42.70
56172;DHT22;42052;41.634;-0.946;2023-03-17T07:48:01;22.10;42.70
56172;DHT22;42052;41.634;-0.946;2023-03-17T07:50:47;22.00;42.60
56172;DHT22;42052;41.634;-0.946;2023-03-17T07:53:33;22.10;42.70
56172;DHT22;42052;41.634;-0.946;2023-03-17T07:56:20;22.00;42.70
56172;DHT22;42052;41.634;-0.946;2023-03-17T07:59:06;22.00;42.90
56172;DHT22;42052;41.634;-0.946;2023-03-17T08:01:53;22.00;42.80
56172;DHT22;42052;41.634;-0.946;2023-03-17T08:04:39;22.00;42.60
56172;DHT22;42052;41.634;-0.946;2023-03-17T08:07:26;22.00;42.60
56172;DHT22;42052;41.634;-0.946;2023-03-17T08:10:12;22.00;42.60
56172;DHT22;42052;41.634;-0.946;2023-03-17T08:12:58;22.00;42.60
56172;DHT22;42052;41.634;-0.946;2023-03-17T08:15:44;22.00;42.60
56172;DHT22;42052;41.634;-0.946;2023-03-17T08:18:31;22.00;42.60
56172;DHT22;42052;41.634;-0.946;2023-03-17T08:21:17;22.00;42.50
56172;DHT22;42052;41.634;-0.946;2023-03-17T08:24:03;22.00;42.50
56172;DHT22;42052;41.634;-0.946;2023-03-17T08:26:50;22.00;42.50
56172;DHT22;42052;41.634;-0.946;2023-03-17T08:29:36;22.10;42.50
56172;DHT22;42052;41.634;-0.946;2023-03-17T08:32:22;22.00;42.60
56172;DHT22;42052;41.634;-0.946;2023-03-17T08:35:12;22.00;42.40
56172;DHT22;42052;41.634;-0.946;2023-03-17T08:38:00;22.00;43.20
56172;DHT22;42052;41.634;-0.946;2023-03-17T08:40:47;22.00;42.40
56172;DHT22;42052;41.634;-0.946;2023-03-17T08:43:35;22.00;42.60
56172;DHT22;42052;41.634;-0.946;2023-03-17T08:46:23;22.00;42.50
56172;DHT22;42052;41.634;-0.946;2023-03-17T08:49:11;22.00;42.50
56172;DHT22;42052;41.634;-0.946;2023-03-17T08:51:58;22.00;42.50
56172;DHT22;42052;41.634;-0.946;2023-03-17T08:54:44;22.00;42.50
56172;DHT22;42052;41.634;-0.946;2023-03-17T08:57:31;22.00;43.30
56172;DHT22;42052;41.634;-0.946;2023-03-17T09:00:18;22.00;42.60
56172;DHT22;42052;41.634;-0.946;2023-03-17T09:03:05;22.00;42.50
56172;DHT22;42052;41.634;-0.946;2023-03-17T09:05:51;22.00;42.50
56172;DHT22;42052;41.634;-0.946;2023-03-17T09:08:40;22.00;42.50
56172;DHT22;42052;41.634;-0.946;2023-03-17T09:11:30;22.00;42.50
56172;DHT22;42052;41.634;-0.946;2023-03-17T09:14:17;22.00;42.50
56172;DHT22;42052;41.634;-0.946;2023-03-17T09:17:03;22.00;42.50
56172;DHT22;42052;41.634;-0.946;2023-03-17T09:19:50;22.00;42.50
56172;DHT22;42052;41.634;-0.946;2023-03-17T09:22:36;22.00;42.40
56172;DHT22;42052;41.634;-0.946;2023-03-17T09:25:23;22.00;42.50
56172;DHT22;42052;41.634;-0.946;2023-03-17T09:28:12;22.00;42.50
56172;DHT22;42052;41.634;-0.946;2023-03-17T09:31:03;22.00;42.40
56172;DHT22;42052;41.634;-0.946;2023-03-17T09:33:49;22.00;42.40
56172;DHT22;42052;41.634;-0.946;2023-03-17T09:36:37;22.00;42.50
56172;DHT22;42052;41.634;-0.946;2023-03-17T09:39:23;22.00;42.40
56172;DHT22;42052;41.634;-0.946;2023-03-17T09:42:20;22.00;42.40
56172;DHT22;42052;41.634;-0.946;2023-03-17T09:48:27;22.00;42.50
56172;DHT22;42052;41.634;-0.946;2023-03-17T09:51:17;22.00;42.40
56172;DHT22;42052;41.634;-0.946;2023-03-17T09:54:10;22.00;42.40
56172;DHT22;42052;41.634;-0.946;2023-03-17T09:57:16;22.00;42.40
56172;DHT22;42052;41.634;-0.946;2023-03-17T10:00:16;22.00;42.40
56172;DHT22;42052;41.634;-0.946;2023-03-17T10:03:09;22.00;42.40
56172;DHT22;42052;41.634;-0.946;2023-03-17T10:09:29;22.00;42.40
56172;DHT22;42052;41.634;-0.946;2023-03-17T10:21:46;21.90;42.40
56172;DHT22;42052;41.634;-0.946;2023-03-17T10:24:38;21.90;42.30
56172;DHT22;42052;41.634;-0.946;2023-03-17T10:27:26;21.90;42.40
56172;DHT22;42052;41.634;-0.946;2023-03-17T10:30:17;21.90;42.30
56172;DHT22;42052;41.634;-0.946;2023-03-17T10:33:05;21.90;42.30
56172;DHT22;42052;41.634;-0.946;2023-03-17T10:35:54;22.00;42.30
56172;DHT22;42052;41.634;-0.946;2023-03-17T10:38:40;21.90;42.30
56172;DHT22;42052;41.634;-0.946;2023-03-17T10:41:27;22.00;42.40
56172;DHT22;42052;41.634;-0.946;2023-03-17T10:44:22;22.00;42.40
56172;DHT22;42052;41.634;-0.946;2023-03-17T10:47:23;22.00;42.40
56172;DHT22;42052;41.634;-0.946;2023-03-17T10:50:22;22.00;42.20
56172;DHT22;42052;41.634;-0.946;2023-03-17T10:53:20;22.00;42.20
56172;DHT22;42052;41.634;-0.946;2023-03-17T10:56:25;22.10;42.20
56172;DHT22;42052;41.634;-0.946;2023-03-17T10:59:25;22.10;42.20
56172;DHT22;42052;41.634;-0.946;2023-03-17T11:02:35;22.10;42.10
56172;DHT22;42052;41.634;-0.946;2023-03-17T11:05:29;22.10;42.10
56172;DHT22;42052;41.634;-0.946;2023-03-17T11:08:17;22.10;42.10
56172;DHT22;42052;41.634;-0.946;2023-03-17T11:11:06;22.10;42.90
56172;DHT22;42052;41.634;-0.946;2023-03-17T11:14:03;22.10;42.00
56172;DHT22;42052;41.634;-0.946;2023-03-17T11:16:55;22.10;42.00
56172;DHT22;42052;41.634;-0.946;2023-03-17T11:20:02;22.10;42.00
56172;DHT22;42052;41.634;-0.946;2023-03-17T11:23:37;22.10;42.00
56172;DHT22;42052;41.634;-0.946;2023-03-17T11:32:35;22.10;41.90
56172;DHT22;42052;41.634;-0.946;2023-03-17T11:38:27;22.20;42.00
56172;DHT22;42052;41.634;-0.946;2023-03-17T11:41:30;22.20;42.00
56172;DHT22;42052;41.634;-0.946;2023-03-17T11:54:09;22.20;42.00
56172;DHT22;42052;41.634;-0.946;2023-03-17T11:57:02;22.20;42.00
56172;DHT22;42052;41.634;-0.946;2023-03-17T12:00:03;22.20;42.00
56172;DHT22;42052;41.634;-0.946;2023-03-17T12:06:33;22.20;41.90
56172;DHT22;42052;41.634;-0.946;2023-03-17T12:09:29;22.30;41.90
56172;DHT22;42052;41.634;-0.946;2023-03-17T12:12:20;22.30;41.90
56172;DHT22;42052;41.634;-0.946;2023-03-17T12:15:21;22.30;41.90
56172;DHT22;42052;41.634;-0.946;2023-03-17T12:18:20;22.30;41.90
56172;DHT22;42052;41.634;-0.946;2023-03-17T12:21:41;22.30;41.90
56172;DHT22;42052;41.634;-0.946;2023-03-17T12:24:40;22.30;41.90
56172;DHT22;42052;41.634;-0.946;2023-03-17T12:28:13;22.30;41.90
56172;DHT22;42052;41.634;-0.946;2023-03-17T12:31:04;22.30;41.90
56172;DHT22;42052;41.634;-0.946;2023-03-17T12:34:03;22.30;41.80
56172;DHT22;42052;41.634;-0.946;2023-03-17T12:36:51;22.30;41.80
56172;DHT22;42052;41.634;-0.946;2023-03-17T12:39:39;22.30;41.80
56172;DHT22;42052;41.634;-0.946;2023-03-17T12:48:48;22.30;41.80
56172;DHT22;42052;41.634;-0.946;2023-03-17T12:54:33;22.30;41.80
56172;DHT22;42052;41.634;-0.946;2023-03-17T12:57:27;22.30;41.80
56172;DHT22;42052;41.634;-0.946;2023-03-17T13:00:26;22.30;41.80
56172;DHT22;42052;41.634;-0.946;2023-03-17T13:06:03;22.30;41.80
56172;DHT22;42052;41.634;-0.946;2023-03-17T13:08:51;22.30;41.80
56172;DHT22;42052;41.634;-0.946;2023-03-17T13:14:45;22.30;41.80
56172;DHT22;42052;41.634;-0.946;2023-03-17T13:17:32;22.30;41.80
56172;DHT22;42052;41.634;-0.946;2023-03-17T13:20:19;22.30;41.80
56172;DHT22;42052;41.634;-0.946;2023-03-17T13:23:14;22.30;41.80
56172;DHT22;42052;41.634;-0.946;2023-03-17T13:26:01;22.30;41.70
56172;DHT22;42052;41.634;-0.946;2023-03-17T13:28:49;22.30;41.80
56172;DHT22;42052;41.634;-0.946;2023-03-17T13:31:36;22.30;41.80
56172;DHT22;42052;41.634;-0.946;2023-03-17T13:34:22;22.30;41.80
56172;DHT22;42052;41.634;-0.946;2023-03-17T13:37:25;22.30;41.80
56172;DHT22;42052;41.634;-0.946;2023-03-17T13:41:20;22.30;41.80
56172;DHT22;42052;41.634;-0.946;2023-03-17T13:49:28;22.30;41.90
56172;DHT22;42052;41.634;-0.946;2023-03-17T13:52:17;22.30;41.90
56172;DHT22;42052;41.634;-0.946;2023-03-17T14:00:58;22.30;41.90
56172;DHT22;42052;41.634;-0.946;2023-03-17T14:03:48;22.30;41.80
56172;DHT22;42052;41.634;-0.946;2023-03-17T14:06:36;22.30;41.70
56172;DHT22;42052;41.634;-0.946;2023-03-17T14:09:43;22.30;41.80
56172;DHT22;42052;41.634;-0.946;2023-03-17T14:12:40;22.30;41.70
56172;DHT22;42052;41.634;-0.946;2023-03-17T14:15:33;22.30;41.80
56172;DHT22;42052;41.634;-0.946;2023-03-17T14:18:32;22.30;41.80
56172;DHT22;42052;41.634;-0.946;2023-03-17T14:21:37;22.30;41.90
56172;DHT22;42052;41.634;-0.946;2023-03-17T14:24:28;22.30;41.70
56172;DHT22;42052;41.634;-0.946;2023-03-17T14:27:15;22.30;41.80
56172;DHT22;42052;41.634;-0.946;2023-03-17T14:30:19;22.30;41.80
56172;DHT22;42052;41.634;-0.946;2023-03-17T14:33:23;22.40;41.80
56172;DHT22;42052;41.634;-0.946;2023-03-17T14:36:12;22.30;41.80
56172;DHT22;42052;41.634;-0.946;2023-03-17T14:38:58;22.30;41.70
56172;DHT22;42052;41.634;-0.946;2023-03-17T14:41:44;22.40;41.70
56172;DHT22;42052;41.634;-0.946;2023-03-17T14:44:41;22.40;41.50
56172;DHT22;42052;41.634;-0.946;2023-03-17T14:47:28;22.40;41.40
56172;DHT22;42052;41.634;-0.946;2023-03-17T14:50:28;22.40;41.40
56172;DHT22;42052;41.634;-0.946;2023-03-17T14:53:16;22.40;41.50
56172;DHT22;42052;41.634;-0.946;2023-03-17T14:56:02;22.50;41.20
56172;DHT22;42052;41.634;-0.946;2023-03-17T14:58:50;22.50;41.30
56172;DHT22;42052;41.634;-0.946;2023-03-17T15:01:42;22.40;41.20
56172;DHT22;42052;41.634;-0.946;2023-03-17T15:04:31;22.40;41.50
56172;DHT22;42052;41.634;-0.946;2023-03-17T15:07:39;22.40;41.30
56172;DHT22;42052;41.634;-0.946;2023-03-17T15:10:27;22.40;41.40
56172;DHT22;42052;41.634;-0.946;2023-03-17T15:13:18;22.40;41.50
56172;DHT22;42052;41.634;-0.946;2023-03-17T15:16:21;22.40;41.60
56172;DHT22;42052;41.634;-0.946;2023-03-17T15:19:19;22.40;41.50
56172;DHT22;42052;41.634;-0.946;2023-03-17T15:22:47;22.40;41.50
56172;DHT22;42052;41.634;-0.946;2023-03-17T15:25:35;22.40;41.30
56172;DHT22;42052;41.634;-0.946;2023-03-17T15:28:29;22.50;41.50
56172;DHT22;42052;41.634;-0.946;2023-03-17T15:31:16;22.40;41.50
56172;DHT22;42052;41.634;-0.946;2023-03-17T15:34:02;22.50;41.40
56172;DHT22;42052;41.634;-0.946;2023-03-17T15:36:49;22.50;41.30
56172;DHT22;42052;41.634;-0.946;2023-03-17T15:39:35;22.50;41.30
56172;DHT22;42052;41.634;-0.946;2023-03-17T15:42:29;22.50;41.30
56172;DHT22;42052;41.634;-0.946;2023-03-17T15:45:16;22.50;41.30
56172;DHT22;42052;41.634;-0.946;2023-03-17T15:48:03;22.50;41.30
56172;DHT22;42052;41.634;-0.946;2023-03-17T15:50:52;22.50;41.30
56172;DHT22;42052;41.634;-0.946;2023-03-17T15:53:40;22.50;41.20
56172;DHT22;42052;41.634;-0.946;2023-03-17T15:56:26;22.50;41.20
56172;DHT22;42052;41.634;-0.946;2023-03-17T15:59:13;22.50;41.30
56172;DHT22;42052;41.634;-0.946;2023-03-17T16:02:00;22.50;41.20
56172;DHT22;42052;41.634;-0.946;2023-03-17T16:04:46;22.50;41.20
56172;DHT22;42052;41.634;-0.946;2023-03-17T16:07:32;22.50;41.20
56172;DHT22;42052;41.634;-0.946;2023-03-17T16:10:29;22.60;41.20
56172;DHT22;42052;41.634;-0.946;2023-03-17T16:13:17;22.50;41.20
56172;DHT22;42052;41.634;-0.946;2023-03-17T16:16:03;22.50;41.30
56172;DHT22;42052;41.634;-0.946;2023-03-17T16:18:50;22.60;41.30
56172;DHT22;42052;41.634;-0.946;2023-03-17T16:21:37;22.50;41.20
56172;DHT22;42052;41.634;-0.946;2023-03-17T16:24:25;22.60;41.40
56172;DHT22;42052;41.634;-0.946;2023-03-17T16:27:14;22.60;42.30
56172;DHT22;42052;41.634;-0.946;2023-03-17T16:30:00;22.50;41.70
56172;DHT22;42052;41.634;-0.946;2023-03-17T16:32:47;22.50;41.30
56172;DHT22;42052;41.634;-0.946;2023-03-17T16:35:33;22.50;41.20
56172;DHT22;42052;41.634;-0.946;2023-03-17T16:38:23;22.60;41.10
56172;DHT22;42052;41.634;-0.946;2023-03-17T16:41:21;22.60;41.20
56172;DHT22;42052;41.634;-0.946;2023-03-17T16:44:10;22.60;41.10
56172;DHT22;42052;41.634;-0.946;2023-03-17T16:46:56;22.60;41.10
56172;DHT22;42052;41.634;-0.946;2023-03-17T16:49:44;22.60;41.10
56172;DHT22;42052;41.634;-0.946;2023-03-17T16:52:30;22.60;41.10
56172;DHT22;42052;41.634;-0.946;2023-03-17T16:55:17;22.60;41.10
56172;DHT22;42052;41.634;-0.946;2023-03-17T16:58:23;22.60;41.10
56172;DHT22;42052;41.634;-0.946;2023-03-17T17:01:15;22.60;41.00
56172;DHT22;42052;41.634;-0.946;2023-03-17T17:04:04;22.60;41.00
56172;DHT22;42052;41.634;-0.946;2023-03-17T17:06:53;22.60;41.00
56172;DHT22;42052;41.634;-0.946;2023-03-17T17:09:41;22.60;41.00
56172;DHT22;42052;41.634;-0.946;2023-03-17T17:12:27;22.60;41.20
56172;DHT22;42052;41.634;-0.946;2023-03-17T17:15:15;22.60;41.10
56172;DHT22;42052;41.634;-0.946;2023-03-17T17:18:06;22.60;41.10
56172;DHT22;42052;41.634;-0.946;2023-03-17T17:20:53;22.50;41.00
56172;DHT22;42052;41.634;-0.946;2023-03-17T17:23:39;22.60;41.00
56172;DHT22;42052;41.634;-0.946;2023-03-17T17:26:25;22.60;41.00
56172;DHT22;42052;41.634;-0.946;2023-03-17T17:29:12;22.60;41.10
56172;DHT22;42052;41.634;-0.946;2023-03-17T17:31:58;22.60;41.20
56172;DHT22;42052;41.634;-0.946;2023-03-17T17:34:45;22.60;41.50
56172;DHT22;42052;41.634;-0.946;2023-03-17T17:37:31;22.60;41.40
56172;DHT22;42052;41.634;-0.946;2023-03-17T17:40:20;22.60;41.40
56172;DHT22;42052;41.634;-0.946;2023-03-17T17:43:08;22.60;41.50
56172;DHT22;42052;41.634;-0.946;2023-03-17T17:45:54;22.60;41.50
56172;DHT22;42052;41.634;-0.946;2023-03-17T17:48:41;22.60;41.40
56172;DHT22;42052;41.634;-0.946;2023-03-17T17:51:27;22.60;41.50
56172;DHT22;42052;41.634;-0.946;2023-03-17T17:54:13;22.60;41.40
56172;DHT22;42052;41.634;-0.946;2023-03-17T17:56:59;22.60;41.50
56172;DHT22;42052;41.634;-0.946;2023-03-17T17:59:45;22.60;41.70
56172;DHT22;42052;41.634;-0.946;2023-03-17T18:02:32;22.60;41.60
56172;DHT22;42052;41.634;-0.946;2023-03-17T18:05:18;22.60;42.00
56172;DHT22;42052;41.634;-0.946;2023-03-17T18:08:04;22.60;41.80
56172;DHT22;42052;41.634;-0.946;2023-03-17T18:10:51;22.60;41.90
56172;DHT22;42052;41.634;-0.946;2023-03-17T18:13:37;22.60;42.10
56172;DHT22;42052;41.634;-0.946;2023-03-17T18:16:24;22.50;42.10
56172;DHT22;42052;41.634;-0.946;2023-03-17T18:19:11;22.50;42.20
56172;DHT22;42052;41.634;-0.946;2023-03-17T18:21:58;22.60;42.20
56172;DHT22;42052;41.634;-0.946;2023-03-17T18:24:44;22.60;42.20
56172;DHT22;42052;41.634;-0.946;2023-03-17T18:27:31;22.50;42.40
56172;DHT22;42052;41.634;-0.946;2023-03-17T18:30:26;22.50;42.50
56172;DHT22;42052;41.634;-0.946;2023-03-17T18:33:15;22.50;42.30
56172;DHT22;42052;41.634;-0.946;2023-03-17T18:36:02;22.50;42.50
56172;DHT22;42052;41.634;-0.946;2023-03-17T18:38:52;22.50;42.60
56172;DHT22;42052;41.634;-0.946;2023-03-17T18:41:38;22.50;42.70
56172;DHT22;42052;41.634;-0.946;2023-03-17T18:44:24;22.60;42.60
56172;DHT22;42052;41.634;-0.946;2023-03-17T18:47:10;22.60;42.90